Terminal Aerodrome Forecast
Issued by NWS

Home | Current Version | Previous Version | Text Only | Print | Product List | Glossary On
Versions: 1 2 3 4 5 6 7 8 9 10 11 12 13 14 15 16 17
000
FTUS44 KHGX 212335
TAFUTS
TAF
KUTS 212335Z 2200/2224 14006KT P6SM VCSH BKN027 OVC050
      TEMPO 2202/2205 VRB10G17KT 2SM TSRA BKN009 OVC015CB
     FM220600 24007KT P6SM VCSH BKN015 BKN035
     FM220900 27009KT P6SM BKN022
     FM221100 30010KT P6SM OVC014
     FM221400 33012KT P6SM FEW020 BKN250=

USA.gov is the U.S. government's official web portal to all federal, state and local government web resources and services.